createdAt,value
2018-05-23T00:01:38.569Z,36.25
2018-05-23T00:04:08.172Z,36.17
2018-05-23T00:06:40.853Z,36.12
2018-05-23T00:09:10.470Z,36.03
2018-05-23T00:11:41.585Z,36.04
2018-05-23T00:14:11.205Z,36.07
2018-05-23T00:16:43.676Z,36.08
2018-05-23T00:19:13.265Z,36.15
2018-05-23T00:21:42.822Z,36.19
2018-05-23T00:24:14.726Z,36.25
2018-05-23T00:26:45.113Z,36.28
2018-05-23T00:29:14.720Z,36.33
2018-05-23T00:31:45.073Z,36.34
2018-05-23T00:34:14.663Z,36.34
2018-05-23T00:36:56.838Z,36.47
2018-05-23T00:39:27.193Z,36.32
2018-05-23T00:41:56.798Z,36.35
2018-05-23T00:44:26.385Z,36.23
2018-05-23T00:46:55.945Z,36.17
2018-05-23T00:49:25.514Z,36.14
2018-05-23T00:51:55.069Z,36.04
2018-05-23T00:54:24.633Z,35.99
2018-05-23T00:56:54.461Z,35.98
2018-05-23T00:59:24.598Z,35.96
2018-05-23T01:01:54.160Z,35.96
2018-05-23T01:04:23.898Z,36.00
2018-05-23T01:06:53.459Z,35.97
2018-05-23T01:09:23.805Z,35.90
2018-05-23T01:11:53.377Z,35.91
2018-05-23T01:14:23.733Z,35.88
2018-05-23T01:16:53.276Z,35.89
2018-05-23T01:19:25.769Z,35.83
2018-05-23T01:21:55.333Z,35.78
2018-05-23T01:24:25.661Z,35.72
2018-05-23T01:26:55.226Z,35.68
2018-05-23T01:29:24.796Z,35.68
2018-05-23T01:31:57.346Z,35.62
2018-05-23T01:34:26.900Z,35.59
2018-05-23T01:36:58.013Z,35.62
2018-05-23T01:39:28.322Z,35.59
2018-05-23T01:42:00.288Z,35.57
2018-05-23T01:44:29.873Z,35.56
2018-05-23T01:46:59.413Z,35.54
2018-05-23T01:49:29.755Z,35.68
2018-05-23T01:51:59.353Z,35.64
2018-05-23T01:54:30.561Z,35.53
2018-05-23T01:57:00.138Z,35.51
2018-05-23T01:59:30.454Z,35.48
2018-05-23T02:02:00.037Z,35.39
2018-05-23T02:04:29.580Z,35.38
2018-05-23T02:06:59.183Z,35.34
2018-05-23T02:09:29.523Z,35.29
2018-05-23T02:11:59.101Z,35.27
2018-05-23T02:14:29.305Z,35.26
2018-05-23T02:16:58.866Z,35.55
2018-05-23T02:19:28.442Z,35.39
2018-05-23T02:21:59.537Z,35.35
2018-05-23T02:24:29.862Z,35.36
2018-05-23T02:27:00.193Z,35.39
2018-05-23T02:29:29.733Z,35.44
2018-05-23T02:32:00.095Z,35.41
2018-05-23T02:34:29.693Z,35.37
2018-05-23T02:37:00.830Z,35.37
2018-05-23T02:39:33.366Z,35.29
2018-05-23T02:42:02.936Z,35.29
2018-05-23T02:44:32.514Z,35.26
2018-05-23T02:47:02.158Z,35.16
2018-05-23T02:49:34.606Z,35.11
2018-05-23T02:52:04.194Z,35.11
2018-05-23T02:54:34.489Z,35.06
2018-05-23T02:57:04.067Z,35.13
2018-05-23T02:59:33.634Z,35.06
2018-05-23T03:02:03.962Z,35.00
2018-05-23T03:04:33.538Z,35.06
2018-05-23T03:07:03.329Z,35.03
2018-05-23T03:09:32.929Z,35.01
2018-05-23T03:12:02.516Z,34.96
2018-05-23T03:14:33.641Z,34.97
2018-05-23T03:17:04.058Z,34.94
2018-05-23T03:19:33.619Z,34.93
2018-05-23T03:22:18.086Z,34.91
2018-05-23T03:24:47.664Z,34.91
2018-05-23T03:27:17.993Z,34.88
2018-05-23T03:29:47.572Z,34.86
2018-05-23T03:32:17.906Z,34.86
2018-05-23T03:34:48.250Z,34.84
2018-05-23T03:37:18.609Z,34.82
2018-05-23T03:39:48.185Z,34.80
2018-05-23T03:42:18.542Z,35.91
2018-05-23T03:44:48.934Z,36.62
2018-05-23T03:47:18.487Z,37.63
2018-05-23T03:49:49.582Z,38.76
2018-05-23T03:52:19.933Z,39.64
2018-05-23T03:54:50.213Z,40.72
2018-05-23T03:57:39.519Z,41.58
2018-05-23T04:00:53.161Z,42.26
2018-05-23T04:03:43.897Z,42.92
2018-05-23T04:06:38.097Z,43.34
2018-05-23T04:09:09.269Z,43.41
2018-05-23T04:11:57.789Z,43.71
2018-05-23T04:14:46.330Z,43.90
2018-05-23T04:17:33.685Z,43.96
2018-05-23T04:20:03.258Z,44.36
2018-05-23T04:22:46.445Z,44.68
2018-05-23T04:25:30.926Z,44.76
2018-05-23T04:28:01.266Z,44.93
2018-05-23T04:30:30.829Z,45.36
2018-05-23T04:33:00.398Z,45.29
2018-05-23T04:35:29.986Z,45.84
2018-05-23T04:37:59.568Z,46.45
2018-05-23T04:40:29.216Z,45.34
2018-05-23T04:42:58.773Z,44.03
2018-05-23T04:45:29.125Z,42.89
2018-05-23T04:47:59.549Z,41.91
2018-05-23T04:50:29.120Z,41.09
2018-05-23T04:52:58.686Z,40.38
2018-05-23T04:55:29.042Z,39.81
2018-05-23T04:57:59.385Z,39.41
2018-05-23T05:00:29.909Z,39.01
2018-05-23T05:03:02.390Z,38.69
2018-05-23T05:05:34.989Z,38.41
2018-05-23T05:08:07.547Z,38.21
2018-05-23T05:10:37.885Z,37.89
2018-05-23T05:13:08.237Z,37.69
2018-05-23T05:15:37.798Z,37.53
2018-05-23T05:18:08.946Z,37.46
2018-05-23T05:20:38.540Z,37.41
2018-05-23T05:23:09.641Z,37.28
2018-05-23T05:25:39.205Z,37.19
2018-05-23T05:28:09.545Z,37.21
2018-05-23T05:30:39.145Z,37.15
2018-05-23T05:33:08.706Z,37.06
2018-05-23T05:35:38.290Z,36.99
2018-05-23T05:38:07.906Z,36.94
2018-05-23T05:40:37.493Z,36.83
2018-05-23T05:43:19.638Z,36.73
2018-05-23T05:45:49.196Z,36.67
2018-05-23T05:48:18.770Z,36.65
2018-05-23T05:50:48.341Z,36.61
2018-05-23T05:53:18.681Z,36.50
2018-05-23T05:55:49.023Z,36.45
2018-05-23T05:58:18.588Z,36.40
2018-05-23T06:00:48.161Z,36.35
2018-05-23T06:03:17.707Z,36.36
2018-05-23T06:05:48.059Z,36.41
2018-05-23T06:08:18.406Z,36.50
2018-05-23T06:10:49.718Z,36.50
2018-05-23T06:13:20.782Z,36.48
2018-05-23T06:15:53.297Z,36.47
2018-05-23T06:18:25.812Z,36.48
2018-05-23T06:20:55.406Z,36.46
2018-05-23T06:23:37.527Z,36.46
2018-05-23T06:26:09.878Z,36.42
2018-05-23T06:28:40.958Z,36.44
2018-05-23T06:31:10.580Z,36.44
2018-05-23T06:33:40.920Z,36.46
2018-05-23T06:36:11.274Z,36.48
2018-05-23T06:38:41.664Z,36.52
2018-05-23T06:41:11.281Z,36.47
2018-05-23T06:43:40.919Z,36.50
2018-05-23T06:46:10.412Z,36.53
2018-05-23T06:48:39.987Z,36.53
2018-05-23T06:51:09.745Z,36.54
2018-05-23T06:53:39.314Z,36.54
2018-05-23T06:56:08.867Z,36.52
2018-05-23T07:01:18.222Z,36.49
2018-05-23T07:03:50.753Z,36.43
2018-05-23T07:06:21.160Z,36.38
2018-05-23T07:08:50.739Z,36.47
2018-05-23T07:11:20.345Z,36.52
2018-05-23T07:13:50.709Z,36.57
2018-05-23T07:16:20.355Z,36.69
2018-05-23T07:18:50.717Z,36.75
2018-05-23T07:21:20.305Z,36.89
2018-05-23T07:23:49.864Z,36.84
2018-05-23T07:26:19.449Z,36.85
2018-05-23T07:29:02.354Z,36.75
2018-05-23T07:31:32.757Z,36.67
2018-05-23T07:34:02.519Z,36.56
2018-05-23T07:36:32.872Z,36.51
2018-05-23T07:39:05.194Z,36.41
2018-05-23T07:41:34.796Z,36.40
2018-05-23T07:44:04.419Z,36.37
2018-05-23T07:46:33.989Z,36.36
2018-05-23T07:49:04.347Z,36.34
2018-05-23T07:51:34.190Z,36.30
2018-05-23T07:54:04.286Z,36.23
2018-05-23T07:56:34.672Z,36.11
2018-05-23T07:59:05.009Z,36.00
2018-05-23T08:01:34.602Z,35.89
2018-05-23T08:04:04.179Z,35.86
2018-05-23T08:06:33.759Z,35.85
2018-05-23T08:09:05.324Z,35.73
2018-05-23T08:11:47.456Z,35.59
2018-05-23T08:14:17.777Z,35.46
2018-05-23T08:16:47.390Z,35.47
2018-05-23T08:19:16.939Z,35.34
2018-05-23T08:21:59.877Z,35.33
2018-05-23T08:24:30.377Z,35.26
2018-05-23T08:26:59.865Z,35.28
2018-05-23T08:29:31.015Z,35.23
2018-05-23T08:32:00.601Z,35.10
2018-05-23T08:34:30.193Z,35.00
2018-05-23T08:37:00.563Z,34.90
2018-05-23T08:39:30.160Z,34.78
2018-05-23T08:41:59.734Z,34.64
2018-05-23T08:44:29.410Z,34.53
2018-05-23T08:47:00.498Z,34.34
2018-05-23T08:49:30.086Z,34.27
2018-05-23T08:51:59.669Z,34.18
2018-05-23T08:54:29.295Z,34.11
2018-05-23T08:56:59.469Z,33.93
2018-05-23T08:59:29.852Z,33.68
2018-05-23T09:01:59.417Z,33.61
2018-05-23T09:04:29.781Z,33.57
2018-05-23T09:07:00.126Z,33.49
2018-05-23T09:09:29.707Z,33.39
2018-05-23T09:11:59.293Z,33.32
2018-05-23T09:14:28.889Z,33.22
2018-05-23T09:16:58.466Z,33.09
2018-05-23T09:19:29.591Z,33.08
2018-05-23T09:21:59.305Z,33.05
2018-05-23T09:24:29.624Z,33.07
2018-05-23T09:26:59.192Z,33.06
2018-05-23T09:29:28.777Z,32.95
2018-05-23T09:31:58.691Z,32.87
2018-05-23T09:34:31.254Z,32.83
2018-05-23T09:37:00.979Z,32.72
2018-05-23T09:39:30.549Z,32.68
2018-05-23T09:42:00.076Z,32.70
2018-05-23T09:44:29.685Z,32.66
2018-05-23T09:46:59.250Z,32.68
2018-05-23T09:49:28.802Z,32.66
2018-05-23T09:51:58.381Z,32.61
2018-05-23T09:54:27.925Z,32.54
2018-05-23T09:56:57.489Z,32.51
2018-05-23T09:59:27.074Z,32.51
2018-05-23T10:01:56.636Z,32.53
2018-05-23T10:04:26.223Z,32.43
2018-05-23T10:06:55.764Z,32.40
2018-05-23T10:09:27.089Z,32.37
2018-05-23T10:11:56.665Z,32.17
2018-05-23T10:14:27.010Z,32.21
2018-05-23T10:16:56.594Z,32.21
2018-05-23T10:19:26.179Z,32.04
2018-05-23T10:21:55.757Z,32.05
2018-05-23T10:24:25.315Z,32.00
2018-05-23T10:26:54.877Z,31.92
2018-05-23T10:29:24.466Z,31.86
2018-05-23T10:31:54.093Z,31.80
2018-05-23T10:34:23.660Z,31.67
2018-05-23T10:37:08.736Z,31.61
2018-05-23T10:39:40.743Z,31.56
2018-05-23T10:42:10.294Z,31.56
2018-05-23T10:44:39.854Z,31.55
2018-05-23T10:47:09.437Z,31.48
2018-05-23T10:49:39.762Z,31.39
2018-05-23T10:52:09.385Z,31.31
2018-05-23T10:54:40.409Z,31.29
2018-05-23T10:57:10.028Z,31.36
2018-05-23T10:59:41.094Z,31.39
2018-05-23T11:02:10.678Z,31.35
2018-05-23T11:04:42.581Z,31.34
2018-05-23T11:07:12.142Z,31.33
2018-05-23T11:09:42.489Z,31.34
2018-05-23T11:12:12.057Z,31.41
2018-05-23T11:14:41.641Z,31.43
2018-05-23T11:17:11.194Z,31.48
2018-05-23T11:19:40.769Z,31.43
2018-05-23T11:22:10.849Z,31.45
2018-05-23T11:24:40.397Z,31.47
2018-05-23T11:27:09.995Z,31.60
2018-05-23T11:29:39.644Z,31.80
2018-05-23T11:32:09.935Z,31.93
2018-05-23T11:34:39.488Z,32.16
2018-05-23T11:37:10.602Z,32.38
2018-05-23T11:39:40.193Z,32.60
2018-05-23T11:42:09.785Z,32.84
2018-05-23T11:44:39.356Z,32.99
2018-05-23T11:47:09.685Z,33.11
2018-05-23T11:49:39.268Z,33.17
2018-05-23T11:52:09.672Z,33.21
2018-05-23T11:54:39.243Z,33.17
2018-05-23T11:57:09.524Z,33.12
2018-05-23T11:59:41.442Z,33.08
2018-05-23T12:02:11.003Z,33.15
2018-05-23T12:04:43.530Z,33.14
2018-05-23T12:07:13.446Z,33.13
2018-05-23T12:09:43.020Z,33.25
2018-05-23T12:12:12.629Z,33.25
2018-05-23T12:14:42.189Z,33.34
2018-05-23T12:17:11.770Z,33.31
2018-05-23T12:19:41.411Z,33.25
2018-05-23T12:22:10.926Z,33.22
2018-05-23T12:24:40.497Z,33.29
2018-05-23T12:27:10.063Z,33.40
2018-05-23T12:29:39.620Z,33.62
2018-05-23T12:32:09.213Z,33.71
2018-05-23T12:34:39.561Z,33.82
2018-05-23T12:37:10.042Z,33.88
2018-05-23T12:39:39.629Z,33.93
2018-05-23T12:42:09.282Z,33.98
2018-05-23T12:44:38.837Z,34.06
2018-05-23T12:47:11.367Z,34.21
2018-05-23T12:49:40.992Z,34.33
2018-05-23T12:52:10.573Z,34.40
2018-05-23T12:54:40.141Z,34.45
2018-05-23T12:57:10.474Z,34.50
2018-05-23T12:59:40.047Z,34.53
2018-05-23T13:02:09.673Z,34.58
2018-05-23T13:04:40.025Z,34.62
2018-05-23T13:07:09.608Z,34.66
2018-05-23T13:09:39.953Z,34.73
2018-05-23T13:12:09.546Z,34.75
2018-05-23T13:14:39.169Z,34.85
2018-05-23T13:17:08.744Z,34.90
2018-05-23T13:19:38.317Z,34.95
2018-05-23T13:22:07.984Z,35.01
2018-05-23T13:24:39.058Z,35.03
2018-05-23T13:27:11.530Z,35.19
2018-05-23T13:29:41.074Z,35.30
2018-05-23T13:32:10.645Z,35.38
2018-05-23T13:34:40.175Z,35.35
2018-05-23T13:37:09.760Z,35.41
2018-05-23T13:39:39.408Z,35.40
2018-05-23T13:42:09.082Z,35.32
2018-05-23T13:44:37.863Z,35.37
2018-05-23T13:47:10.266Z,35.34
2018-05-23T13:49:40.666Z,35.28
2018-05-23T13:52:10.200Z,35.29
2018-05-23T13:54:40.090Z,35.33
2018-05-23T13:57:09.702Z,35.25
2018-05-23T13:59:39.325Z,35.16
2018-05-23T14:02:08.132Z,35.02
2018-05-23T14:04:37.705Z,35.03
2018-05-23T14:07:06.565Z,34.83
2018-05-23T14:09:36.150Z,34.69
2018-05-23T14:12:05.748Z,34.53
2018-05-23T14:14:35.318Z,34.49
2018-05-23T14:17:04.906Z,34.47
2018-05-23T14:19:34.471Z,34.33
2018-05-23T14:22:04.048Z,34.32
2018-05-23T14:24:32.849Z,34.33
2018-05-23T14:27:02.401Z,34.24
2018-05-23T14:29:32.717Z,34.13
2018-05-23T14:32:02.297Z,34.06
2018-05-23T14:34:31.899Z,34.05
2018-05-23T14:37:14.045Z,33.96
2018-05-23T14:39:43.627Z,33.97
2018-05-23T14:42:13.203Z,33.97
2018-05-23T14:44:42.765Z,34.01
2018-05-23T14:47:13.849Z,33.96
2018-05-23T14:49:43.438Z,33.96
2018-05-23T14:52:13.016Z,33.87
2018-05-23T14:54:42.608Z,33.78
2018-05-23T14:57:12.922Z,33.54
2018-05-23T14:59:43.294Z,33.41
2018-05-23T15:02:12.878Z,33.40
2018-05-23T15:04:45.493Z,33.36
2018-05-23T15:09:52.950Z,33.16
2018-05-23T15:12:22.515Z,32.95
2018-05-23T15:14:52.069Z,32.90
2018-05-23T15:17:22.488Z,32.88
2018-05-23T15:19:52.818Z,32.82
2018-05-23T15:22:22.421Z,32.67
2018-05-23T15:24:51.967Z,32.65
2018-05-23T15:27:21.554Z,32.68
2018-05-23T15:29:51.103Z,32.74
2018-05-23T15:32:22.220Z,32.69
2018-05-23T15:34:51.807Z,32.56
2018-05-23T15:37:21.398Z,32.65
2018-05-23T15:39:50.978Z,32.62
2018-05-23T15:42:20.549Z,32.66
2018-05-23T15:44:51.682Z,32.65
2018-05-23T15:47:21.232Z,32.56
2018-05-23T15:49:50.825Z,32.55
2018-05-23T15:52:23.412Z,32.57
2018-05-23T15:54:52.285Z,32.64
2018-05-23T15:57:21.844Z,32.67
2018-05-23T15:59:51.393Z,32.17
2018-05-23T16:02:20.981Z,32.39
2018-05-23T16:04:50.534Z,33.12
2018-05-23T16:07:20.143Z,33.51
2018-05-23T16:09:49.729Z,33.73
2018-05-23T16:12:19.297Z,32.31
2018-05-23T16:14:48.916Z,32.46
2018-05-23T16:17:18.442Z,32.43
2018-05-23T16:19:48.023Z,33.31
2018-05-23T16:22:17.606Z,32.86
2018-05-23T16:24:47.271Z,32.80
2018-05-23T16:27:16.774Z,32.20
2018-05-23T16:29:46.345Z,32.15
2018-05-23T16:32:16.708Z,32.46
2018-05-23T16:34:47.837Z,31.87
2018-05-23T16:37:20.533Z,32.39
2018-05-23T16:39:50.324Z,31.75
2018-05-23T16:42:20.794Z,31.73
2018-05-23T16:44:50.701Z,31.96
2018-05-23T16:47:20.298Z,31.37
2018-05-23T16:49:49.849Z,30.68
2018-05-23T16:52:20.222Z,31.41
2018-05-23T16:54:50.579Z,31.37
2018-05-23T16:57:20.163Z,31.65
2018-05-23T16:59:49.738Z,30.56
2018-05-23T17:02:19.304Z,30.59
2018-05-23T17:04:48.913Z,30.75
2018-05-23T17:07:19.270Z,31.29
2018-05-23T17:09:48.826Z,31.71
2018-05-23T17:12:20.077Z,31.33
2018-05-23T17:15:02.936Z,30.91
2018-05-23T17:17:32.514Z,31.43
2018-05-23T17:20:02.101Z,31.30
2018-05-23T17:22:31.682Z,31.56
2018-05-23T17:25:02.053Z,31.16
2018-05-23T17:27:32.499Z,31.11
2018-05-23T17:30:03.378Z,31.42
2018-05-23T17:32:32.993Z,31.44
2018-05-23T17:35:02.564Z,31.14
2018-05-23T17:37:32.157Z,31.49
2018-05-23T17:40:02.392Z,30.89
2018-05-23T17:42:32.164Z,32.14
2018-05-23T17:45:01.735Z,31.53
2018-05-23T17:47:32.100Z,32.03
2018-05-23T17:50:03.225Z,31.99
2018-05-23T17:52:32.840Z,31.73
2018-05-23T17:55:02.422Z,31.56
2018-05-23T17:57:32.758Z,31.52
2018-05-23T18:00:02.512Z,30.87
2018-05-23T18:02:32.091Z,31.73
2018-05-23T18:05:03.234Z,31.09
2018-05-23T18:07:35.903Z,30.89
2018-05-23T18:10:06.307Z,30.83
2018-05-23T18:12:38.837Z,30.58
2018-05-23T18:15:08.433Z,30.49
2018-05-23T18:17:38.778Z,30.37
2018-05-23T18:20:08.364Z,31.46
2018-05-23T18:22:38.812Z,31.77
2018-05-23T18:25:09.228Z,31.30
2018-05-23T18:27:38.735Z,31.45
2018-05-23T18:30:09.101Z,31.57
2018-05-23T18:33:51.924Z,31.37
2018-05-23T18:36:24.450Z,31.44
2018-05-23T18:38:54.213Z,30.73
2018-05-23T18:41:26.136Z,30.88
2018-05-23T18:43:56.563Z,30.77
2018-05-23T18:46:26.148Z,30.82
2018-05-23T18:48:56.616Z,30.62
2018-05-23T18:51:26.197Z,30.30
2018-05-23T18:53:57.366Z,31.17
2018-05-23T18:56:26.946Z,30.23
2018-05-23T18:58:57.335Z,30.25
2018-05-23T19:01:26.928Z,30.20
2018-05-23T19:03:56.506Z,30.01
2018-05-23T19:06:26.084Z,30.76
2018-05-23T19:08:55.750Z,30.19
2018-05-23T19:11:26.118Z,29.91
2018-05-23T19:13:55.753Z,30.25
2018-05-23T19:16:26.457Z,29.73
2018-05-23T19:18:56.199Z,30.09
2018-05-23T19:21:25.856Z,29.86
2018-05-23T19:23:55.594Z,29.90
2018-05-23T19:26:25.296Z,30.03
2018-05-23T19:28:55.035Z,29.79
2018-05-23T19:31:27.632Z,29.65
2018-05-23T19:33:58.805Z,29.52
2018-05-23T19:36:28.442Z,30.00
2018-05-23T19:39:01.027Z,29.93
2018-05-23T19:41:31.507Z,29.89
2018-05-23T19:44:02.422Z,29.81
2018-05-23T19:46:32.058Z,29.93
2018-05-23T19:49:01.648Z,29.96
2018-05-23T19:51:31.581Z,29.84
2018-05-23T19:54:01.262Z,29.88
2018-05-23T19:56:30.842Z,29.94
2018-05-23T19:59:00.397Z,29.81
2018-05-23T20:01:30.050Z,30.06
2018-05-23T20:03:59.804Z,29.98
2018-05-23T20:06:43.667Z,30.27
2018-05-23T20:09:13.254Z,30.19
2018-05-23T20:11:45.265Z,30.41
2018-05-23T20:14:14.971Z,30.38
2018-05-23T20:16:45.233Z,30.50
2018-05-23T20:19:15.022Z,30.77
2018-05-23T20:21:44.722Z,30.40
2018-05-23T20:24:14.351Z,30.73
2018-05-23T20:26:43.932Z,30.42
2018-05-23T20:29:13.613Z,30.78
2018-05-23T20:31:43.141Z,30.65
2018-05-23T20:36:23.896Z,30.52
2018-05-23T20:38:53.560Z,30.53
2018-05-23T20:43:38.691Z,30.64
2018-05-23T20:46:08.953Z,30.76
2018-05-23T20:48:38.495Z,30.70
2018-05-23T20:53:16.940Z,30.78
2018-05-23T20:55:46.590Z,30.91
2018-05-23T20:58:16.182Z,30.93
2018-05-23T21:00:45.823Z,31.12
2018-05-23T21:03:15.459Z,31.12
2018-05-23T21:05:45.222Z,30.80
2018-05-23T21:08:14.757Z,31.53
2018-05-23T21:10:45.377Z,31.49
2018-05-23T21:13:15.639Z,30.97
2018-05-23T21:15:45.321Z,31.27
